sensor_id;sensor_type;location;lat;lon;timestamp;pressure;altitude;pressure_sealevel;temperature;humidity
18201;BME280;9226;47.858;9.594;2023-01-26T00:02:01;95584.72;;;0.88;78.99
18201;BME280;9226;47.858;9.594;2023-01-26T00:04:27;95580.06;;;0.97;79.17
18201;BME280;9226;47.858;9.594;2023-01-26T00:06:52;95580.84;;;0.99;79.59
18201;BME280;9226;47.858;9.594;2023-01-26T00:09:17;95573.78;;;1.01;79.54
18201;BME280;9226;47.858;9.594;2023-01-26T00:11:43;95570.13;;;1.05;79.35
18201;BME280;9226;47.858;9.594;2023-01-26T00:14:08;95579.63;;;0.85;79.25
18201;BME280;9226;47.858;9.594;2023-01-26T00:16:34;95573.91;;;0.98;79.31
18201;BME280;9226;47.858;9.594;2023-01-26T00:18:59;95578.22;;;0.99;79.25
18201;BME280;9226;47.858;9.594;2023-01-26T00:21:25;95567.50;;;0.84;79.32
18201;BME280;9226;47.858;9.594;2023-01-26T00:23:51;95571.72;;;0.87;79.44
18201;BME280;9226;47.858;9.594;2023-01-26T00:26:22;95559.31;;;0.71;79.72
18201;BME280;9226;47.858;9.594;2023-01-26T00:28:50;95562.59;;;0.54;79.95
18201;BME280;9226;47.858;9.594;2023-01-26T00:31:19;95563.91;;;0.65;79.78
18201;BME280;9226;47.858;9.594;2023-01-26T00:33:45;95554.81;;;0.75;80.00
18201;BME280;9226;47.858;9.594;2023-01-26T00:36:11;95563.66;;;0.71;79.94
18201;BME280;9226;47.858;9.594;2023-01-26T00:38:37;95563.25;;;0.82;79.75
18201;BME280;9226;47.858;9.594;2023-01-26T00:41:02;95563.88;;;0.87;79.51
18201;BME280;9226;47.858;9.594;2023-01-26T00:43:28;95560.28;;;0.69;79.60
18201;BME280;9226;47.858;9.594;2023-01-26T00:45:53;95565.25;;;0.75;79.94
18201;BME280;9226;47.858;9.594;2023-01-26T00:48:19;95570.84;;;0.66;80.32
18201;BME280;9226;47.858;9.594;2023-01-26T00:50:44;95570.97;;;0.63;80.68
18201;BME280;9226;47.858;9.594;2023-01-26T00:53:10;95568.53;;;0.80;80.10
18201;BME280;9226;47.858;9.594;2023-01-26T00:55:36;95564.75;;;0.87;79.82
18201;BME280;9226;47.858;9.594;2023-01-26T00:58:05;95566.09;;;0.76;80.03
18201;BME280;9226;47.858;9.594;2023-01-26T01:00:32;95568.53;;;0.80;80.25
18201;BME280;9226;47.858;9.594;2023-01-26T01:02:58;95565.13;;;0.78;80.28
18201;BME280;9226;47.858;9.594;2023-01-26T01:05:25;95565.00;;;0.81;80.60
18201;BME280;9226;47.858;9.594;2023-01-26T01:07:51;95555.06;;;0.69;80.89
18201;BME280;9226;47.858;9.594;2023-01-26T01:10:17;95559.66;;;0.84;80.29
18201;BME280;9226;47.858;9.594;2023-01-26T01:12:42;95547.63;;;0.80;80.00
18201;BME280;9226;47.858;9.594;2023-01-26T01:15:09;95559.78;;;0.81;79.74
18201;BME280;9226;47.858;9.594;2023-01-26T01:17:34;95561.22;;;0.88;79.96
18201;BME280;9226;47.858;9.594;2023-01-26T01:20:04;95556.94;;;0.87;79.87
18201;BME280;9226;47.858;9.594;2023-01-26T01:22:32;95557.13;;;0.83;80.26
18201;BME280;9226;47.858;9.594;2023-01-26T01:24:57;95561.91;;;0.94;80.03
18201;BME280;9226;47.858;9.594;2023-01-26T01:27:22;95566.06;;;0.98;80.34
18201;BME280;9226;47.858;9.594;2023-01-26T01:29:51;95552.34;;;0.93;79.96
18201;BME280;9226;47.858;9.594;2023-01-26T01:32:18;95550.38;;;0.98;80.33
18201;BME280;9226;47.858;9.594;2023-01-26T01:34:46;95551.06;;;1.03;79.88
18201;BME280;9226;47.858;9.594;2023-01-26T01:37:11;95548.47;;;1.03;79.65
18201;BME280;9226;47.858;9.594;2023-01-26T01:39:37;95550.00;;;0.86;80.17
18201;BME280;9226;47.858;9.594;2023-01-26T01:42:02;95550.06;;;0.85;80.17
18201;BME280;9226;47.858;9.594;2023-01-26T01:44:28;95540.06;;;0.95;80.12
18201;BME280;9226;47.858;9.594;2023-01-26T01:52:10;95538.81;;;0.83;79.94
18201;BME280;9226;47.858;9.594;2023-01-26T01:54:43;95543.28;;;0.81;79.64
18201;BME280;9226;47.858;9.594;2023-01-26T01:57:14;95536.47;;;0.77;79.71
18201;BME280;9226;47.858;9.594;2023-01-26T01:59:48;95539.78;;;0.80;79.85
18201;BME280;9226;47.858;9.594;2023-01-26T02:02:17;95535.16;;;0.87;80.10
18201;BME280;9226;47.858;9.594;2023-01-26T02:04:43;95532.41;;;0.90;79.58
18201;BME280;9226;47.858;9.594;2023-01-26T02:07:09;95533.03;;;0.97;79.23
18201;BME280;9226;47.858;9.594;2023-01-26T02:09:37;95531.19;;;0.99;79.17
18201;BME280;9226;47.858;9.594;2023-01-26T02:12:26;95529.69;;;0.93;78.96
18201;BME280;9226;47.858;9.594;2023-01-26T02:14:54;95531.31;;;0.96;79.12
18201;BME280;9226;47.858;9.594;2023-01-26T02:17:20;95515.41;;;1.02;78.83
18201;BME280;9226;47.858;9.594;2023-01-26T02:22:47;95524.25;;;0.98;78.82
18201;BME280;9226;47.858;9.594;2023-01-26T02:28:04;95523.22;;;0.81;78.11
18201;BME280;9226;47.858;9.594;2023-01-26T02:30:30;95523.22;;;0.81;77.83
18201;BME280;9226;47.858;9.594;2023-01-26T02:32:55;95519.34;;;0.90;78.02
18201;BME280;9226;47.858;9.594;2023-01-26T02:35:21;95511.31;;;0.74;78.26
18201;BME280;9226;47.858;9.594;2023-01-26T02:37:47;95505.59;;;0.86;78.45
18201;BME280;9226;47.858;9.594;2023-01-26T02:40:23;95509.97;;;0.86;78.68
18201;BME280;9226;47.858;9.594;2023-01-26T02:42:50;95501.38;;;0.84;79.04
18201;BME280;9226;47.858;9.594;2023-01-26T02:45:19;95505.72;;;0.83;78.72
18201;BME280;9226;47.858;9.594;2023-01-26T02:47:45;95498.53;;;0.88;78.53
18201;BME280;9226;47.858;9.594;2023-01-26T02:50:11;95493.66;;;0.81;78.68
18201;BME280;9226;47.858;9.594;2023-01-26T02:52:37;95489.78;;;0.69;79.09
18201;BME280;9226;47.858;9.594;2023-01-26T02:55:03;95483.91;;;0.64;79.05
18201;BME280;9226;47.858;9.594;2023-01-26T02:58:00;95488.75;;;0.73;78.83
18201;BME280;9226;47.858;9.594;2023-01-26T03:00:32;95472.94;;;0.76;78.38
18201;BME280;9226;47.858;9.594;2023-01-26T03:03:14;95479.59;;;0.83;78.12
18201;BME280;9226;47.858;9.594;2023-01-26T03:05:40;95471.69;;;0.85;78.15
18201;BME280;9226;47.858;9.594;2023-01-26T03:08:06;95476.00;;;0.86;78.32
18201;BME280;9226;47.858;9.594;2023-01-26T03:10:34;95471.56;;;0.88;78.17
18201;BME280;9226;47.858;9.594;2023-01-26T03:12:59;95456.97;;;0.84;78.19
18201;BME280;9226;47.858;9.594;2023-01-26T03:15:25;95464.63;;;0.87;78.22
18201;BME280;9226;47.858;9.594;2023-01-26T03:18:15;95466.28;;;0.89;78.13
18201;BME280;9226;47.858;9.594;2023-01-26T03:21:09;95455.91;;;0.88;78.06
18201;BME280;9226;47.858;9.594;2023-01-26T03:23:59;95452.31;;;0.90;78.26
18201;BME280;9226;47.858;9.594;2023-01-26T03:26:43;95454.78;;;0.94;78.06
18201;BME280;9226;47.858;9.594;2023-01-26T03:29:28;95450.03;;;0.83;78.07
18201;BME280;9226;47.858;9.594;2023-01-26T03:31:54;95447.47;;;0.61;78.64
18201;BME280;9226;47.858;9.594;2023-01-26T03:34:20;95442.38;;;0.78;78.20
18201;BME280;9226;47.858;9.594;2023-01-26T03:36:46;95445.63;;;0.63;78.22
18201;BME280;9226;47.858;9.594;2023-01-26T03:39:12;95437.81;;;0.83;78.06
18201;BME280;9226;47.858;9.594;2023-01-26T03:41:57;95440.81;;;0.74;78.00
18201;BME280;9226;47.858;9.594;2023-01-26T03:44:41;95441.63;;;0.76;78.06
18201;BME280;9226;47.858;9.594;2023-01-26T03:47:25;95438.88;;;0.79;78.18
18201;BME280;9226;47.858;9.594;2023-01-26T03:50:09;95441.94;;;0.48;77.66
18201;BME280;9226;47.858;9.594;2023-01-26T03:52:53;95440.09;;;0.50;77.77
18201;BME280;9226;47.858;9.594;2023-01-26T03:55:38;95438.00;;;0.58;77.89
18201;BME280;9226;47.858;9.594;2023-01-26T03:58:21;95441.53;;;0.37;78.05
18201;BME280;9226;47.858;9.594;2023-01-26T04:00:48;95442.59;;;0.31;78.54
18201;BME280;9226;47.858;9.594;2023-01-26T04:03:14;95439.69;;;0.39;78.12
18201;BME280;9226;47.858;9.594;2023-01-26T04:05:58;95436.63;;;0.29;77.98
18201;BME280;9226;47.858;9.594;2023-01-26T04:08:43;95435.28;;;0.18;78.16
18201;BME280;9226;47.858;9.594;2023-01-26T04:11:08;95438.69;;;0.21;78.34
18201;BME280;9226;47.858;9.594;2023-01-26T04:13:34;95424.72;;;0.22;78.15
18201;BME280;9226;47.858;9.594;2023-01-26T04:16:18;95427.97;;;0.27;78.17
18201;BME280;9226;47.858;9.594;2023-01-26T04:19:02;95427.00;;;0.29;77.83
18201;BME280;9226;47.858;9.594;2023-01-26T04:21:45;95427.59;;;0.36;78.12
18201;BME280;9226;47.858;9.594;2023-01-26T04:24:11;95421.28;;;0.42;77.81
18201;BME280;9226;47.858;9.594;2023-01-26T04:26:40;95420.28;;;0.44;77.31
18201;BME280;9226;47.858;9.594;2023-01-26T04:29:12;95421.22;;;0.23;77.61
18201;BME280;9226;47.858;9.594;2023-01-26T04:31:38;95414.59;;;0.14;77.62
18201;BME280;9226;47.858;9.594;2023-01-26T04:34:05;95415.63;;;0.32;77.71
18201;BME280;9226;47.858;9.594;2023-01-26T04:36:31;95411.84;;;0.17;77.50
18201;BME280;9226;47.858;9.594;2023-01-26T04:38:57;95409.91;;;0.22;77.62
18201;BME280;9226;47.858;9.594;2023-01-26T04:41:23;95406.72;;;0.36;77.42
18201;BME280;9226;47.858;9.594;2023-01-26T04:43:48;95406.59;;;0.39;77.42
18201;BME280;9226;47.858;9.594;2023-01-26T04:46:14;95405.50;;;0.45;77.42
18201;BME280;9226;47.858;9.594;2023-01-26T04:48:40;95409.03;;;0.44;77.34
18201;BME280;9226;47.858;9.594;2023-01-26T04:51:09;95404.50;;;0.47;77.40
18201;BME280;9226;47.858;9.594;2023-01-26T04:53:36;95411.44;;;0.48;77.51
18201;BME280;9226;47.858;9.594;2023-01-26T04:56:01;95406.41;;;0.44;77.00
18201;BME280;9226;47.858;9.594;2023-01-26T04:58:27;95399.28;;;0.47;77.21
18201;BME280;9226;47.858;9.594;2023-01-26T05:00:54;95401.56;;;0.55;77.20
18201;BME280;9226;47.858;9.594;2023-01-26T05:03:20;95398.91;;;0.57;76.98
18201;BME280;9226;47.858;9.594;2023-01-26T05:05:50;95405.91;;;0.56;76.85
18201;BME280;9226;47.858;9.594;2023-01-26T05:08:18;95407.53;;;0.59;76.84
18201;BME280;9226;47.858;9.594;2023-01-26T05:10:44;95408.00;;;0.68;76.92
18201;BME280;9226;47.858;9.594;2023-01-26T05:13:09;95408.97;;;0.66;76.97
18201;BME280;9226;47.858;9.594;2023-01-26T05:15:35;95406.47;;;0.63;76.97
18201;BME280;9226;47.858;9.594;2023-01-26T05:18:01;95404.94;;;0.59;76.75
18201;BME280;9226;47.858;9.594;2023-01-26T05:20:26;95399.56;;;0.62;76.70
18201;BME280;9226;47.858;9.594;2023-01-26T05:22:52;95395.25;;;0.61;76.22
18201;BME280;9226;47.858;9.594;2023-01-26T05:25:17;95399.56;;;0.62;76.14
18201;BME280;9226;47.858;9.594;2023-01-26T05:27:43;95404.88;;;0.60;76.52
18201;BME280;9226;47.858;9.594;2023-01-26T05:30:09;95399.41;;;0.65;76.73
18201;BME280;9226;47.858;9.594;2023-01-26T05:32:35;95403.88;;;0.63;76.79
18201;BME280;9226;47.858;9.594;2023-01-26T05:35:01;95406.47;;;0.63;76.70
18201;BME280;9226;47.858;9.594;2023-01-26T05:37:27;95407.53;;;0.59;76.47
18201;BME280;9226;47.858;9.594;2023-01-26T05:39:53;95408.06;;;0.67;76.63
18201;BME280;9226;47.858;9.594;2023-01-26T05:42:18;95393.41;;;0.63;76.67
18201;BME280;9226;47.858;9.594;2023-01-26T05:44:44;95403.66;;;0.67;76.50
18201;BME280;9226;47.858;9.594;2023-01-26T05:47:09;95405.97;;;0.75;76.84
18201;BME280;9226;47.858;9.594;2023-01-26T05:49:35;95402.03;;;0.65;76.71
18201;BME280;9226;47.858;9.594;2023-01-26T05:52:11;95407.94;;;0.70;76.49
18201;BME280;9226;47.858;9.594;2023-01-26T05:54:37;95410.41;;;0.73;76.34
18201;BME280;9226;47.858;9.594;2023-01-26T05:57:03;95409.41;;;0.76;76.41
18201;BME280;9226;47.858;9.594;2023-01-26T05:59:28;95419.00;;;0.75;76.11
18201;BME280;9226;47.858;9.594;2023-01-26T06:01:57;95417.31;;;0.74;75.69
18201;BME280;9226;47.858;9.594;2023-01-26T06:04:23;95417.38;;;0.72;75.51
18201;BME280;9226;47.858;9.594;2023-01-26T06:06:51;95427.03;;;0.70;75.56
18201;BME280;9226;47.858;9.594;2023-01-26T06:09:18;95414.06;;;0.69;75.82
18201;BME280;9226;47.858;9.594;2023-01-26T06:11:44;95414.06;;;0.69;75.95
18201;BME280;9226;47.858;9.594;2023-01-26T06:14:10;95418.25;;;0.73;75.94
18201;BME280;9226;47.858;9.594;2023-01-26T06:16:35;95417.19;;;0.77;75.83
18201;BME280;9226;47.858;9.594;2023-01-26T06:19:01;95414.94;;;0.68;75.63
18201;BME280;9226;47.858;9.594;2023-01-26T06:21:26;95422.47;;;0.55;76.19
18201;BME280;9226;47.858;9.594;2023-01-26T06:23:51;95418.81;;;0.59;76.56
18201;BME280;9226;47.858;9.594;2023-01-26T06:26:17;95417.75;;;0.63;76.55
18201;BME280;9226;47.858;9.594;2023-01-26T06:28:42;95418.75;;;0.61;76.35
18201;BME280;9226;47.858;9.594;2023-01-26T06:31:08;95418.09;;;0.56;76.37
18201;BME280;9226;47.858;9.594;2023-01-26T06:33:35;95424.22;;;0.75;76.52
18201;BME280;9226;47.858;9.594;2023-01-26T06:36:06;95420.66;;;0.78;75.88
18201;BME280;9226;47.858;9.594;2023-01-26T06:38:32;95424.03;;;0.80;75.98
18201;BME280;9226;47.858;9.594;2023-01-26T06:41:01;95423.84;;;0.84;75.88
18201;BME280;9226;47.858;9.594;2023-01-26T06:43:31;95428.00;;;0.88;75.80
18201;BME280;9226;47.858;9.594;2023-01-26T06:45:57;95423.44;;;0.94;75.81
18201;BME280;9226;47.858;9.594;2023-01-26T06:48:27;95425.19;;;0.93;75.63
18201;BME280;9226;47.858;9.594;2023-01-26T06:50:55;95426.06;;;0.94;75.39
18201;BME280;9226;47.858;9.594;2023-01-26T06:53:37;95417.47;;;0.90;75.20
18201;BME280;9226;47.858;9.594;2023-01-26T06:56:05;95428.00;;;0.88;75.50
18201;BME280;9226;47.858;9.594;2023-01-26T06:58:31;95425.25;;;0.92;75.25
18201;BME280;9226;47.858;9.594;2023-01-26T07:00:56;95416.78;;;0.86;75.13
18201;BME280;9226;47.858;9.594;2023-01-26T07:03:22;95418.75;;;0.81;74.97
18201;BME280;9226;47.858;9.594;2023-01-26T07:05:47;95419.53;;;0.83;75.07
18201;BME280;9226;47.858;9.594;2023-01-26T07:08:12;95425.81;;;0.79;74.82
18201;BME280;9226;47.858;9.594;2023-01-26T07:10:38;95417.69;;;0.65;74.89
18201;BME280;9226;47.858;9.594;2023-01-26T07:13:05;95419.91;;;0.74;75.09
18201;BME280;9226;47.858;9.594;2023-01-26T07:15:31;95424.16;;;0.77;75.45
18201;BME280;9226;47.858;9.594;2023-01-26T07:17:58;95422.06;;;0.85;75.36
18201;BME280;9226;47.858;9.594;2023-01-26T07:20:23;95424.88;;;0.80;74.83
18201;BME280;9226;47.858;9.594;2023-01-26T07:22:49;95420.16;;;0.88;75.17
18201;BME280;9226;47.858;9.594;2023-01-26T07:25:16;95417.03;;;0.80;75.18
18201;BME280;9226;47.858;9.594;2023-01-26T07:27:42;95418.34;;;0.90;74.96
18201;BME280;9226;47.858;9.594;2023-01-26T07:30:08;95418.69;;;0.62;75.00
18201;BME280;9226;47.858;9.594;2023-01-26T07:32:34;95417.31;;;0.74;75.53
18201;BME280;9226;47.858;9.594;2023-01-26T07:34:59;95416.72;;;0.67;75.50
18201;BME280;9226;47.858;9.594;2023-01-26T07:37:29;95412.81;;;0.78;75.58
18201;BME280;9226;47.858;9.594;2023-01-26T07:39:54;95411.19;;;0.75;75.77
18201;BME280;9226;47.858;9.594;2023-01-26T07:42:19;95408.56;;;0.75;76.12
18201;BME280;9226;47.858;9.594;2023-01-26T07:44:45;95412.75;;;0.79;76.24
18201;BME280;9226;47.858;9.594;2023-01-26T07:47:10;95403.84;;;0.83;76.29
18201;BME280;9226;47.858;9.594;2023-01-26T07:49:36;95405.50;;;0.86;75.63
18201;BME280;9226;47.858;9.594;2023-01-26T07:52:01;95404.63;;;0.65;75.14
18201;BME280;9226;47.858;9.594;2023-01-26T07:54:27;95404.13;;;0.77;75.47
18201;BME280;9226;47.858;9.594;2023-01-26T07:56:52;95411.19;;;0.75;75.36
18201;BME280;9226;47.858;9.594;2023-01-26T07:59:19;95412.63;;;0.62;75.27
18201;BME280;9226;47.858;9.594;2023-01-26T08:01:45;95409.53;;;0.52;75.83
18201;BME280;9226;47.858;9.594;2023-01-26T08:04:12;95404.50;;;0.47;76.15
18201;BME280;9226;47.858;9.594;2023-01-26T08:06:37;95411.31;;;0.51;76.22
18201;BME280;9226;47.858;9.594;2023-01-26T08:09:03;95408.75;;;0.70;76.06
18201;BME280;9226;47.858;9.594;2023-01-26T08:11:28;95410.00;;;0.82;75.82
18201;BME280;9226;47.858;9.594;2023-01-26T08:13:54;95401.03;;;0.88;75.55
18201;BME280;9226;47.858;9.594;2023-01-26T08:16:20;95406.34;;;0.86;75.26
18201;BME280;9226;47.858;9.594;2023-01-26T08:18:46;95400.28;;;0.86;75.10
18201;BME280;9226;47.858;9.594;2023-01-26T08:21:13;95405.16;;;0.94;75.04
18201;BME280;9226;47.858;9.594;2023-01-26T08:23:38;95404.97;;;0.98;74.93
18201;BME280;9226;47.858;9.594;2023-01-26T08:26:06;95400.72;;;0.96;74.95
18201;BME280;9226;47.858;9.594;2023-01-26T08:28:33;95400.31;;;1.05;75.03
18201;BME280;9226;47.858;9.594;2023-01-26T08:31:06;95404.38;;;1.11;74.92
18201;BME280;9226;47.858;9.594;2023-01-26T08:33:33;95404.25;;;1.14;75.23
18201;BME280;9226;47.858;9.594;2023-01-26T08:36:06;95401.56;;;1.15;74.80
18201;BME280;9226;47.858;9.594;2023-01-26T08:38:33;95405.13;;;1.14;74.50
18201;BME280;9226;47.858;9.594;2023-01-26T08:40:59;95401.22;;;1.23;74.47
18201;BME280;9226;47.858;9.594;2023-01-26T08:43:25;95405.75;;;1.19;74.36
18201;BME280;9226;47.858;9.594;2023-01-26T08:45:51;95401.16;;;1.24;74.46
18201;BME280;9226;47.858;9.594;2023-01-26T08:48:16;95404.19;;;0.76;74.42
18201;BME280;9226;47.858;9.594;2023-01-26T08:50:42;95407.00;;;0.71;74.52
18201;BME280;9226;47.858;9.594;2023-01-26T08:53:08;95403.47;;;0.72;74.52
18201;BME280;9226;47.858;9.594;2023-01-26T08:55:34;95399.41;;;0.85;74.99
18201;BME280;9226;47.858;9.594;2023-01-26T08:57:59;95397.38;;;0.92;74.96
18201;BME280;9226;47.858;9.594;2023-01-26T09:00:25;95400.31;;;1.05;74.91
18201;BME280;9226;47.858;9.594;2023-01-26T09:02:57;95398.19;;;1.13;74.55
18201;BME280;9226;47.858;9.594;2023-01-26T09:05:23;95392.00;;;1.16;74.18
18201;BME280;9226;47.858;9.594;2023-01-26T09:07:48;95391.66;;;1.23;74.37
18201;BME280;9226;47.858;9.594;2023-01-26T09:10:14;95387.97;;;1.27;73.86
18201;BME280;9226;47.858;9.594;2023-01-26T09:12:39;95388.59;;;1.33;73.61
18201;BME280;9226;47.858;9.594;2023-01-26T09:15:06;95385.84;;;1.36;73.76
18201;BME280;9226;47.858;9.594;2023-01-26T09:17:32;95380.59;;;1.36;73.31
18201;BME280;9226;47.858;9.594;2023-01-26T09:19:57;95381.28;;;1.41;73.26
18201;BME280;9226;47.858;9.594;2023-01-26T09:22:22;95379.41;;;1.43;72.58
18201;BME280;9226;47.858;9.594;2023-01-26T09:24:48;95377.50;;;1.27;71.87
18201;BME280;9226;47.858;9.594;2023-01-26T09:27:13;95393.25;;;1.26;72.16
18201;BME280;9226;47.858;9.594;2023-01-26T09:29:39;95389.03;;;1.23;72.36
18201;BME280;9226;47.858;9.594;2023-01-26T09:32:04;95388.25;;;1.21;72.44
18201;BME280;9226;47.858;9.594;2023-01-26T09:34:30;95387.63;;;1.35;72.71
18201;BME280;9226;47.858;9.594;2023-01-26T09:36:55;95380.81;;;1.31;72.65
18201;BME280;9226;47.858;9.594;2023-01-26T09:39:21;95388.16;;;1.42;72.48
18201;BME280;9226;47.858;9.594;2023-01-26T09:45:08;95391.66;;;1.23;71.52
18201;BME280;9226;47.858;9.594;2023-01-26T09:50:48;95395.66;;;1.31;72.45
18201;BME280;9226;47.858;9.594;2023-01-26T09:53:25;95390.22;;;1.16;72.41
18201;BME280;9226;47.858;9.594;2023-01-26T09:55:53;95388.59;;;1.33;72.72
18201;BME280;9226;47.858;9.594;2023-01-26T09:58:28;95389.88;;;1.43;72.57
18201;BME280;9226;47.858;9.594;2023-01-26T10:00:59;95392.59;;;1.02;72.71
18201;BME280;9226;47.858;9.594;2023-01-26T10:03:46;95384.84;;;1.00;72.12
18201;BME280;9226;47.858;9.594;2023-01-26T10:06:17;95385.97;;;1.14;72.94
18201;BME280;9226;47.858;9.594;2023-01-26T10:08:46;95389.72;;;1.08;73.06
18201;BME280;9226;47.858;9.594;2023-01-26T10:11:21;95389.19;;;1.20;72.79
18201;BME280;9226;47.858;9.594;2023-01-26T10:13:55;95383.44;;;1.31;72.59
18201;BME280;9226;47.858;9.594;2023-01-26T10:16:21;95382.19;;;1.40;72.64
18201;BME280;9226;47.858;9.594;2023-01-26T10:18:53;95385.00;;;1.54;72.72
18201;BME280;9226;47.858;9.594;2023-01-26T10:21:24;95375.50;;;1.52;72.14
18201;BME280;9226;47.858;9.594;2023-01-26T10:23:51;95366.47;;;1.59;72.43
18201;BME280;9226;47.858;9.594;2023-01-26T10:26:19;95368.13;;;1.61;72.12
18201;BME280;9226;47.858;9.594;2023-01-26T10:28:47;95369.09;;;1.59;71.96
18201;BME280;9226;47.858;9.594;2023-01-26T10:31:19;95374.47;;;1.56;71.63
18201;BME280;9226;47.858;9.594;2023-01-26T10:33:54;95375.31;;;1.56;71.77
18201;BME280;9226;47.858;9.594;2023-01-26T10:36:20;95372.41;;;1.62;71.64
18201;BME280;9226;47.858;9.594;2023-01-26T10:38:47;95365.22;;;1.68;71.81
18201;BME280;9226;47.858;9.594;2023-01-26T10:44:20;95373.50;;;1.58;70.71
18201;BME280;9226;47.858;9.594;2023-01-26T10:46:42;95369.34;;;1.72;70.92
18201;BME280;9226;47.858;9.594;2023-01-26T10:51:35;95368.25;;;1.58;70.74
18201;BME280;9226;47.858;9.594;2023-01-26T10:54:26;95364.16;;;1.53;70.99
18201;BME280;9226;47.858;9.594;2023-01-26T10:59:41;95366.56;;;1.57;71.25
18201;BME280;9226;47.858;9.594;2023-01-26T11:04:35;95373.91;;;1.49;71.43
18201;BME280;9226;47.858;9.594;2023-01-26T11:07:26;95375.84;;;1.46;71.61
18201;BME280;9226;47.858;9.594;2023-01-26T11:09:53;95369.94;;;1.59;71.60
18201;BME280;9226;47.858;9.594;2023-01-26T11:12:19;95367.66;;;1.71;71.47
18201;BME280;9226;47.858;9.594;2023-01-26T11:15:02;95365.09;;;1.69;71.01
18201;BME280;9226;47.858;9.594;2023-01-26T11:17:50;95370.69;;;1.25;70.88
18201;BME280;9226;47.858;9.594;2023-01-26T11:20:43;95368.47;;;1.54;71.39
18201;BME280;9226;47.858;9.594;2023-01-26T11:24:26;95374.88;;;1.47;71.08
18201;BME280;9226;47.858;9.594;2023-01-26T11:26:56;95366.69;;;1.54;71.11
18201;BME280;9226;47.858;9.594;2023-01-26T11:29:53;95366.84;;;1.51;71.04
18201;BME280;9226;47.858;9.594;2023-01-26T11:34:57;95366.69;;;1.54;71.16
18201;BME280;9226;47.858;9.594;2023-01-26T11:40:25;95358.28;;;1.67;70.86
18201;BME280;9226;47.858;9.594;2023-01-26T11:59:48;95335.38;;;1.53;70.48
18201;BME280;9226;47.858;9.594;2023-01-26T12:04:50;95331.66;;;1.39;71.37
18201;BME280;9226;47.858;9.594;2023-01-26T12:09:53;95326.72;;;1.52;71.11
18201;BME280;9226;47.858;9.594;2023-01-26T12:12:23;95324.84;;;1.54;70.87
18201;BME280;9226;47.858;9.594;2023-01-26T12:17:59;95337.88;;;1.37;70.43
18201;BME280;9226;47.858;9.594;2023-01-26T12:20:41;95329.97;;;1.19;70.84
18201;BME280;9226;47.858;9.594;2023-01-26T12:25:48;95333.56;;;1.36;70.97
18201;BME280;9226;47.858;9.594;2023-01-26T12:31:11;95318.06;;;1.50;70.34
18201;BME280;9226;47.858;9.594;2023-01-26T12:33:38;95312.69;;;1.53;70.79
18201;BME280;9226;47.858;9.594;2023-01-26T12:36:34;95307.59;;;1.50;70.36
18201;BME280;9226;47.858;9.594;2023-01-26T12:45:21;95307.19;;;1.40;70.49
18201;BME280;9226;47.858;9.594;2023-01-26T12:52:19;95307.06;;;1.24;70.46
18201;BME280;9226;47.858;9.594;2023-01-26T12:55:02;95298.31;;;1.44;69.98
18201;BME280;9226;47.858;9.594;2023-01-26T12:57:41;95307.69;;;1.30;69.58
18201;BME280;9226;47.858;9.594;2023-01-26T13:00:21;95304.13;;;0.94;69.58
18201;BME280;9226;47.858;9.594;2023-01-26T13:02:52;95307.06;;;0.86;70.27
18201;BME280;9226;47.858;9.594;2023-01-26T13:05:31;95305.53;;;0.82;70.49
18201;BME280;9226;47.858;9.594;2023-01-26T13:07:58;95305.91;;;0.94;70.52
18201;BME280;9226;47.858;9.594;2023-01-26T13:10:46;95296.97;;;0.98;70.15
18201;BME280;9226;47.858;9.594;2023-01-26T13:15:40;95295.66;;;1.08;71.09
18201;BME280;9226;47.858;9.594;2023-01-26T13:18:11;95294.38;;;0.98;70.34
18201;BME280;9226;47.858;9.594;2023-01-26T13:20:41;95286.47;;;1.18;70.54
18201;BME280;9226;47.858;9.594;2023-01-26T13:28:40;95282.19;;;0.79;71.34
18201;BME280;9226;47.858;9.594;2023-01-26T13:31:08;95277.78;;;0.99;71.33
18201;BME280;9226;47.858;9.594;2023-01-26T13:33:34;95289.44;;;0.92;71.21
18201;BME280;9226;47.858;9.594;2023-01-26T13:36:02;95284.06;;;0.95;71.59
18201;BME280;9226;47.858;9.594;2023-01-26T13:38:37;95288.66;;;1.08;71.49
18201;BME280;9226;47.858;9.594;2023-01-26T13:41:08;95287.31;;;1.19;71.34
18201;BME280;9226;47.858;9.594;2023-01-26T13:43:43;95286.47;;;1.18;71.49
18201;BME280;9226;47.858;9.594;2023-01-26T13:48:53;95282.66;;;1.25;71.03
18201;BME280;9226;47.858;9.594;2023-01-26T13:51:21;95286.47;;;1.18;70.46
18201;BME280;9226;47.858;9.594;2023-01-26T13:54:04;95284.41;;;1.06;70.70
18201;BME280;9226;47.858;9.594;2023-01-26T13:56:41;95292.34;;;1.04;71.10
18201;BME280;9226;47.858;9.594;2023-01-26T13:59:18;95292.75;;;0.76;71.79
18201;BME280;9226;47.858;9.594;2023-01-26T14:01:45;95292.22;;;0.68;71.74
18201;BME280;9226;47.858;9.594;2023-01-26T14:04:17;95289.22;;;0.77;71.92
18201;BME280;9226;47.858;9.594;2023-01-26T14:06:47;95287.22;;;0.63;72.12
18201;BME280;9226;47.858;9.594;2023-01-26T14:09:13;95294.09;;;0.45;72.97
18201;BME280;9226;47.858;9.594;2023-01-26T14:11:40;95298.03;;;0.56;72.82
18201;BME280;9226;47.858;9.594;2023-01-26T14:14:18;95296.00;;;0.42;73.04
18201;BME280;9226;47.858;9.594;2023-01-26T14:16:45;95292.00;;;0.53;73.39
18201;BME280;9226;47.858;9.594;2023-01-26T14:19:12;95294.34;;;0.60;73.05
18201;BME280;9226;47.858;9.594;2023-01-26T14:24:23;95287.88;;;0.68;72.58
18201;BME280;9226;47.858;9.594;2023-01-26T14:26:49;95288.31;;;0.78;72.14
18201;BME280;9226;47.858;9.594;2023-01-26T14:29:23;95286.56;;;0.58;72.40
18201;BME280;9226;47.858;9.594;2023-01-26T14:31:50;95296.84;;;0.42;73.21
18201;BME280;9226;47.858;9.594;2023-01-26T14:34:22;95280.56;;;0.37;73.29
18201;BME280;9226;47.858;9.594;2023-01-26T14:37:10;95296.31;;;0.54;73.20
18201;BME280;9226;47.858;9.594;2023-01-26T14:39:37;95303.88;;;0.61;73.17
18201;BME280;9226;47.858;9.594;2023-01-26T14:42:03;95293.94;;;0.69;72.55
18201;BME280;9226;47.858;9.594;2023-01-26T14:44:29;95291.69;;;0.80;72.39
18201;BME280;9226;47.858;9.594;2023-01-26T14:47:06;95295.59;;;0.90;72.43
18201;BME280;9226;47.858;9.594;2023-01-26T14:52:22;95305.53;;;0.82;72.37
18201;BME280;9226;47.858;9.594;2023-01-26T14:54:50;95300.41;;;1.00;71.98
18201;BME280;9226;47.858;9.594;2023-01-26T14:57:19;95306.59;;;0.97;71.80
18201;BME280;9226;47.858;9.594;2023-01-26T14:59:55;95305.84;;;0.95;71.93
18201;BME280;9226;47.858;9.594;2023-01-26T15:02:24;95314.56;;;0.94;72.27
18201;BME280;9226;47.858;9.594;2023-01-26T15:04:59;95312.78;;;0.95;72.18
18201;BME280;9226;47.858;9.594;2023-01-26T15:09:59;95310.19;;;0.95;72.34